createdAt,value
2018-11-26T00:00:47.565Z,2.2
2018-11-26T00:01:47.499Z,2.2
2018-11-26T00:02:47.392Z,2.2
2018-11-26T00:03:47.288Z,2.2
2018-11-26T00:04:47.595Z,2.2
2018-11-26T00:05:50.759Z,2.2
2018-11-26T00:06:53.439Z,2.2
2018-11-26T00:07:53.326Z,2.1
2018-11-26T00:08:53.213Z,2.1
2018-11-26T00:09:53.108Z,2.1
2018-11-26T00:10:53.001Z,2.2
2018-11-26T00:11:52.919Z,2.1
2018-11-26T00:12:52.822Z,2.1
2018-11-26T00:13:52.717Z,2.1
2018-11-26T00:14:53.012Z,2.1
2018-11-26T00:15:52.904Z,2.1
2018-11-26T00:16:52.820Z,2.2
2018-11-26T00:17:52.710Z,2.2
2018-11-26T00:18:52.603Z,2.3
2018-11-26T00:19:52.487Z,2.3
2018-11-26T00:20:52.386Z,2.4
2018-11-26T00:21:52.287Z,2.4
2018-11-26T00:22:52.169Z,2.5
2018-11-26T00:23:52.046Z,2.5
2018-11-26T00:24:52.370Z,2.5
2018-11-26T00:25:52.259Z,2.5
2018-11-26T00:26:52.178Z,2.6
2018-11-26T00:27:52.076Z,2.6
2018-11-26T00:28:51.969Z,2.7
2018-11-26T00:29:51.882Z,2.7
2018-11-26T00:30:51.794Z,2.7
2018-11-26T00:31:51.692Z,2.8
2018-11-26T00:32:51.624Z,2.7
2018-11-26T00:33:51.512Z,2.7
2018-11-26T00:34:51.822Z,2.8
2018-11-26T00:35:51.708Z,2.8
2018-11-26T00:36:51.620Z,2.8
2018-11-26T00:37:51.527Z,2.8
2018-11-26T00:38:51.451Z,2.8
2018-11-26T00:39:51.330Z,2.7
2018-11-26T00:40:51.240Z,2.7
2018-11-26T00:41:51.123Z,2.6
2018-11-26T00:42:50.999Z,2.6
2018-11-26T00:43:50.883Z,2.5
2018-11-26T00:44:51.222Z,2.5
2018-11-26T00:45:51.130Z,2.3
2018-11-26T00:46:51.010Z,2.2
2018-11-26T00:47:50.912Z,2.2
2018-11-26T00:48:50.814Z,2.1
2018-11-26T00:49:50.724Z,2.1
2018-11-26T00:50:50.608Z,2.2
2018-11-26T00:51:50.509Z,2.2
2018-11-26T00:52:50.410Z,2.2
2018-11-26T00:53:50.304Z,2.2
2018-11-26T00:54:50.638Z,2.2
2018-11-26T00:55:50.528Z,2.2
2018-11-26T00:56:50.418Z,2.2
2018-11-26T00:57:50.325Z,2.3
2018-11-26T00:58:50.219Z,2.3
2018-11-26T00:59:50.141Z,2.3
2018-11-26T01:00:50.034Z,2.3
2018-11-26T01:01:49.968Z,2.2
2018-11-26T01:02:49.880Z,2.2
2018-11-26T01:03:49.769Z,2.1
2018-11-26T01:04:50.079Z,2.2
2018-11-26T01:05:50.006Z,2.2
2018-11-26T01:06:49.914Z,2.1
2018-11-26T01:07:49.795Z,2.2
2018-11-26T01:08:49.688Z,2.2
2018-11-26T01:09:49.578Z,2.1
2018-11-26T01:10:49.458Z,2.1
2018-11-26T01:11:49.367Z,2.1
2018-11-26T01:12:49.277Z,2
2018-11-26T01:13:49.164Z,1.9
2018-11-26T01:14:49.478Z,1.8
2018-11-26T01:15:49.355Z,1.8
2018-11-26T01:16:49.263Z,1.8
2018-11-26T01:17:49.166Z,1.8
2018-11-26T01:18:49.080Z,1.8
2018-11-26T01:19:48.990Z,1.8
2018-11-26T01:20:48.897Z,1.8
2018-11-26T01:21:48.792Z,1.8
2018-11-26T01:22:48.667Z,1.8
2018-11-26T01:23:48.554Z,1.8
2018-11-26T01:24:48.868Z,1.8
2018-11-26T01:25:48.761Z,1.8
2018-11-26T01:26:48.656Z,1.8
2018-11-26T01:27:48.542Z,1.8
2018-11-26T01:28:48.424Z,1.8
2018-11-26T01:29:48.319Z,1.9
2018-11-26T01:30:48.198Z,1.9
2018-11-26T01:31:48.108Z,1.9
2018-11-26T01:32:48.020Z,1.9
2018-11-26T01:33:47.908Z,1.9
2018-11-26T01:34:48.218Z,1.8
2018-11-26T01:35:48.105Z,1.8
2018-11-26T01:36:48.021Z,1.9
2018-11-26T01:37:47.905Z,1.9
2018-11-26T01:38:47.805Z,1.9
2018-11-26T01:39:47.686Z,1.9
2018-11-26T01:40:47.572Z,1.9
2018-11-26T01:41:47.518Z,1.9
2018-11-26T01:42:47.386Z,1.9
2018-11-26T01:43:47.288Z,1.8
2018-11-26T01:44:47.596Z,1.8
2018-11-26T01:45:47.486Z,1.8
2018-11-26T01:46:47.396Z,1.8
2018-11-26T01:47:47.282Z,1.8
2018-11-26T01:48:47.173Z,1.8
2018-11-26T01:49:47.060Z,1.8
2018-11-26T01:50:46.942Z,1.8
2018-11-26T01:51:46.836Z,1.8
2018-11-26T01:52:46.764Z,1.8
2018-11-26T01:53:46.654Z,1.8
2018-11-26T01:54:46.981Z,1.7
2018-11-26T01:55:46.863Z,1.7
2018-11-26T01:56:46.761Z,1.8
2018-11-26T01:57:46.644Z,1.8
2018-11-26T01:58:46.558Z,1.7
2018-11-26T01:59:46.468Z,1.8
2018-11-26T02:00:46.361Z,1.8
2018-11-26T02:01:46.239Z,1.7
2018-11-26T02:02:46.130Z,1.8
2018-11-26T02:03:46.038Z,1.8
2018-11-26T02:04:46.333Z,1.8
2018-11-26T02:05:46.250Z,1.8
2018-11-26T02:06:46.150Z,1.8
2018-11-26T02:07:46.047Z,1.8
2018-11-26T02:08:45.964Z,1.7
2018-11-26T02:09:45.846Z,1.8
2018-11-26T02:10:45.749Z,1.8
2018-11-26T02:11:45.644Z,1.8
2018-11-26T02:12:45.566Z,1.8
2018-11-26T02:13:45.469Z,1.8
2018-11-26T02:14:45.800Z,1.8
2018-11-26T02:15:45.725Z,1.8
2018-11-26T02:16:45.620Z,1.8
2018-11-26T02:17:45.506Z,2.6
2018-11-26T02:18:45.400Z,1.9
2018-11-26T02:19:45.304Z,1.9
2018-11-26T02:20:45.197Z,2.1
2018-11-26T02:21:45.100Z,2.1
2018-11-26T02:22:44.999Z,2.2
2018-11-26T02:23:44.898Z,2.2
2018-11-26T02:24:45.225Z,2.2
2018-11-26T02:25:45.102Z,2.3
2018-11-26T02:26:44.998Z,2.3
2018-11-26T02:27:44.889Z,2.2
2018-11-26T02:28:44.791Z,2.1
2018-11-26T02:29:44.692Z,2.2
2018-11-26T02:30:44.582Z,2.1
2018-11-26T02:31:44.480Z,2.1
2018-11-26T02:32:44.375Z,2.1
2018-11-26T02:33:44.278Z,2.1
2018-11-26T02:34:44.620Z,2.1
2018-11-26T02:35:44.515Z,2.1
2018-11-26T02:36:44.406Z,2.1
2018-11-26T02:37:44.299Z,2.1
2018-11-26T02:38:44.193Z,2.1
2018-11-26T02:39:44.135Z,2.1
2018-11-26T02:40:44.034Z,2.1
2018-11-26T02:41:43.963Z,2
2018-11-26T02:42:43.872Z,2
2018-11-26T02:43:43.757Z,2
2018-11-26T02:44:44.101Z,2
2018-11-26T02:45:43.978Z,1.9
2018-11-26T02:46:43.872Z,1.8
2018-11-26T02:47:43.751Z,1.8
2018-11-26T02:48:43.641Z,1.8
2018-11-26T02:49:43.557Z,1.8
2018-11-26T02:50:43.523Z,1.7
2018-11-26T02:51:43.416Z,1.7
2018-11-26T02:52:43.335Z,1.7
2018-11-26T02:53:43.232Z,1.7
2018-11-26T02:54:43.582Z,1.7
2018-11-26T02:55:43.498Z,1.7
2018-11-26T02:56:43.391Z,1.7
2018-11-26T02:57:43.293Z,1.8
2018-11-26T02:58:43.183Z,1.8
2018-11-26T02:59:43.069Z,1.8
2018-11-26T03:00:43.019Z,1.8
2018-11-26T03:01:42.905Z,1.7
2018-11-26T03:02:42.794Z,1.7
2018-11-26T03:03:42.682Z,1.7
2018-11-26T03:04:43.011Z,1.7
2018-11-26T03:05:42.902Z,1.7
2018-11-26T03:06:42.812Z,1.8
2018-11-26T03:07:42.733Z,1.8
2018-11-26T03:08:42.640Z,1.8
2018-11-26T03:09:42.549Z,1.8
2018-11-26T03:10:42.427Z,1.8
2018-11-26T03:11:42.325Z,1.8
2018-11-26T03:12:42.237Z,1.7
2018-11-26T03:13:42.143Z,1.7
2018-11-26T03:14:42.486Z,1.7
2018-11-26T03:15:42.368Z,1.7
2018-11-26T03:16:42.282Z,1.8
2018-11-26T03:17:42.226Z,1.8
2018-11-26T03:18:42.157Z,2
2018-11-26T03:19:42.041Z,2
2018-11-26T03:21:41.678Z,2.2
2018-11-26T03:22:41.564Z,2.3
2018-11-26T03:23:41.442Z,2.3
2018-11-26T03:24:41.850Z,2.4
2018-11-26T03:25:41.738Z,2.4
2018-11-26T03:26:41.650Z,2.4
2018-11-26T03:27:41.548Z,2.5
2018-11-26T03:28:41.439Z,2.4
2018-11-26T03:29:41.321Z,2.4
2018-11-26T03:30:41.238Z,2.4
2018-11-26T03:31:41.242Z,2.3
2018-11-26T03:32:41.190Z,2.3
2018-11-26T03:33:41.097Z,2.2
2018-11-26T03:34:41.468Z,2.2
2018-11-26T03:35:41.377Z,2.2
2018-11-26T03:36:41.287Z,2.2
2018-11-26T03:37:41.181Z,2.2
2018-11-26T03:38:41.091Z,2.1
2018-11-26T03:39:40.983Z,2.1
2018-11-26T03:40:40.876Z,2.1
2018-11-26T03:41:40.772Z,2.1
2018-11-26T03:42:40.653Z,2
2018-11-26T03:43:40.532Z,2
2018-11-26T03:44:40.860Z,1.9
2018-11-26T03:45:40.825Z,1.9
2018-11-26T03:46:40.742Z,1.8
2018-11-26T03:47:40.625Z,1.7
2018-11-26T03:48:40.548Z,1.7
2018-11-26T03:49:40.439Z,1.7
2018-11-26T03:50:40.336Z,1.7
2018-11-26T03:51:40.240Z,1.7
2018-11-26T03:52:40.134Z,1.7
2018-11-26T03:53:40.048Z,1.6
2018-11-26T03:54:40.399Z,1.6
2018-11-26T03:55:40.327Z,1.7
2018-11-26T03:56:40.223Z,1.7
2018-11-26T03:57:40.119Z,1.7
2018-11-26T03:58:40.009Z,1.7
2018-11-26T03:59:39.916Z,1.7
2018-11-26T04:00:39.808Z,1.6
2018-11-26T04:01:39.702Z,1.6
2018-11-26T04:02:39.587Z,1.6
2018-11-26T04:03:39.551Z,1.6
2018-11-26T04:04:39.887Z,1.6
2018-11-26T04:05:39.783Z,1.5
2018-11-26T04:06:39.753Z,1.5
2018-11-26T04:07:39.649Z,1.5
2018-11-26T04:08:39.559Z,1.6
2018-11-26T04:09:39.446Z,1.7
2018-11-26T04:10:39.365Z,1.8
2018-11-26T04:12:39.020Z,1.9
2018-11-26T04:13:38.949Z,2.1
2018-11-26T04:14:39.271Z,2.1
2018-11-26T04:15:39.170Z,2.2
2018-11-26T04:16:39.110Z,2.2
2018-11-26T04:17:39.007Z,2.2
2018-11-26T04:18:38.914Z,2.2
2018-11-26T04:19:38.806Z,2.2
2018-11-26T04:20:38.688Z,2.2
2018-11-26T04:21:38.574Z,2.2
2018-11-26T04:22:38.523Z,2.2
2018-11-26T04:23:38.440Z,2.2
2018-11-26T04:24:38.773Z,2.2
2018-11-26T04:25:38.659Z,2.1
2018-11-26T04:26:38.605Z,2.1
2018-11-26T04:27:38.539Z,2.1
2018-11-26T04:28:38.420Z,2.1
2018-11-26T04:29:38.331Z,2.2
2018-11-26T04:30:38.213Z,2.2
2018-11-26T04:31:38.098Z,2.2
2018-11-26T04:32:37.985Z,2.2
2018-11-26T04:33:37.917Z,2.2
2018-11-26T04:34:38.262Z,2.3
2018-11-26T04:35:38.191Z,2.2
2018-11-26T04:36:38.088Z,2.2
2018-11-26T04:37:37.999Z,2.2
2018-11-26T04:38:37.915Z,2.2
2018-11-26T04:39:37.837Z,2.2
2018-11-26T04:40:37.743Z,2.2
2018-11-26T04:41:37.636Z,2.2
2018-11-26T04:42:37.536Z,2.2
2018-11-26T04:43:37.438Z,2.1
2018-11-26T04:44:37.778Z,2.1
2018-11-26T04:45:37.669Z,2.1
2018-11-26T04:46:37.565Z,2.1
2018-11-26T04:47:37.535Z,2.1
2018-11-26T04:48:37.469Z,2.2
2018-11-26T04:49:37.397Z,2.2
2018-11-26T04:50:37.285Z,2.2
2018-11-26T04:51:37.193Z,2.2
2018-11-26T04:52:37.098Z,2.2
2018-11-26T04:53:36.994Z,2.3
2018-11-26T04:54:37.358Z,2.3
2018-11-26T04:55:37.264Z,2.3
2018-11-26T04:56:37.174Z,2.3
2018-11-26T04:57:43.409Z,2.3
2018-11-26T04:58:43.383Z,2.3
2018-11-26T04:59:43.295Z,2.3
2018-11-26T05:00:43.223Z,2.3
2018-11-26T05:01:43.103Z,2.2
2018-11-26T05:02:43.011Z,2.2
2018-11-26T05:03:42.899Z,2.1
2018-11-26T05:04:43.236Z,2.1
2018-11-26T05:05:43.147Z,2.1
2018-11-26T05:06:43.050Z,2.1
2018-11-26T05:07:42.969Z,2
2018-11-26T05:08:42.919Z,2
2018-11-26T05:09:42.827Z,2
2018-11-26T05:10:42.736Z,1.9
2018-11-26T05:11:42.642Z,1.9
2018-11-26T05:12:42.527Z,1.9
2018-11-26T05:13:42.436Z,1.8
2018-11-26T05:14:42.815Z,1.8
2018-11-26T05:15:42.698Z,1.7
2018-11-26T05:16:42.593Z,1.7
2018-11-26T05:17:42.515Z,1.7
2018-11-26T05:18:42.447Z,1.6
2018-11-26T05:19:42.368Z,1.6
2018-11-26T05:20:42.272Z,1.6
2018-11-26T05:21:42.165Z,1.6
2018-11-26T05:22:42.122Z,1.6
2018-11-26T05:23:42.014Z,1.6
2018-11-26T05:24:42.351Z,1.6
2018-11-26T05:25:42.259Z,1.6
2018-11-26T05:26:42.153Z,1.5
2018-11-26T05:27:42.071Z,1.5
2018-11-26T05:28:41.969Z,1.7
2018-11-26T05:29:41.890Z,1.8
2018-11-26T05:30:41.825Z,1.8
2018-11-26T05:31:41.717Z,1.8
2018-11-26T05:32:41.615Z,1.9
2018-11-26T05:34:41.673Z,1.9
2018-11-26T05:35:41.549Z,1.9
2018-11-26T05:36:41.453Z,1.9
2018-11-26T05:37:41.341Z,1.9
2018-11-26T05:38:41.219Z,1.9
2018-11-26T05:39:41.114Z,1.9
2018-11-26T05:40:41.013Z,1.9
2018-11-26T05:41:40.913Z,1.8
2018-11-26T05:42:40.818Z,1.8
2018-11-26T05:43:40.726Z,1.8
2018-11-26T05:44:41.115Z,1.7
2018-11-26T05:45:41.050Z,1.7
2018-11-26T05:46:40.973Z,1.6
2018-11-26T05:47:40.892Z,1.6
2018-11-26T05:48:40.787Z,1.6
2018-11-26T05:49:40.724Z,1.5
2018-11-26T05:50:40.617Z,1.5
2018-11-26T05:51:40.512Z,1.5
2018-11-26T05:52:40.437Z,1.5
2018-11-26T05:53:40.328Z,1.4
2018-11-26T05:54:40.618Z,1.4
2018-11-26T05:55:40.504Z,1.4
2018-11-26T05:56:40.395Z,1.4
2018-11-26T05:57:40.314Z,1.4
2018-11-26T05:58:40.210Z,1.4
2018-11-26T05:59:40.096Z,1.5
2018-11-26T06:00:39.996Z,1.5
2018-11-26T06:01:39.891Z,1.4
2018-11-26T06:02:39.807Z,1.4
2018-11-26T06:03:39.705Z,1.4
2018-11-26T06:04:40.037Z,1.4
2018-11-26T06:05:39.944Z,1.5
2018-11-26T06:06:39.843Z,1.5
2018-11-26T06:07:39.731Z,1.6
2018-11-26T06:08:39.634Z,1.7
2018-11-26T06:09:39.512Z,1.8
2018-11-26T06:11:39.149Z,2
2018-11-26T06:12:39.048Z,2.1
2018-11-26T06:13:38.967Z,2.1
2018-11-26T06:14:39.376Z,2.2
2018-11-26T06:15:39.272Z,2.2
2018-11-26T06:16:39.151Z,2.2
2018-11-26T06:17:39.024Z,2.2
2018-11-26T06:18:38.921Z,2.2
2018-11-26T06:19:38.825Z,2.2
2018-11-26T06:20:38.732Z,2.2
2018-11-26T06:21:38.634Z,2.2
2018-11-26T06:22:38.556Z,2.1
2018-11-26T06:23:38.470Z,2.1
2018-11-26T06:24:38.797Z,2.1
2018-11-26T06:25:38.707Z,2
2018-11-26T06:26:38.606Z,2
2018-11-26T06:27:38.502Z,2
2018-11-26T06:28:38.416Z,2
2018-11-26T06:29:38.350Z,2.1
2018-11-26T06:30:38.228Z,2.1
2018-11-26T06:31:38.127Z,2.1
2018-11-26T06:32:38.027Z,2.2
2018-11-26T06:33:37.935Z,2.2
2018-11-26T06:34:43.013Z,2.3
2018-11-26T06:35:42.915Z,2.3
2018-11-26T06:36:42.822Z,2.3
2018-11-26T06:37:42.722Z,2.3
2018-11-26T06:38:42.638Z,2.3
2018-11-26T06:39:42.532Z,2.3
2018-11-26T06:40:42.432Z,2.2
2018-11-26T06:41:42.319Z,2.2
2018-11-26T06:42:42.204Z,2.2
2018-11-26T06:43:42.112Z,2.1
2018-11-26T06:44:42.432Z,2.2
2018-11-26T06:45:42.350Z,2.1
2018-11-26T06:46:42.246Z,2.1
2018-11-26T06:47:42.156Z,2.1
2018-11-26T06:48:42.056Z,2.1
2018-11-26T06:49:41.964Z,2.1
2018-11-26T06:50:41.873Z,2.1
2018-11-26T06:51:41.773Z,2.1
2018-11-26T06:52:41.677Z,2.1
2018-11-26T06:53:41.568Z,2
2018-11-26T06:54:41.907Z,2
2018-11-26T06:55:41.808Z,2
2018-11-26T06:56:41.716Z,2
2018-11-26T06:57:41.608Z,2
2018-11-26T06:58:41.480Z,2
2018-11-26T06:59:41.408Z,1.9
2018-11-26T07:00:41.307Z,2
2018-11-26T07:01:41.220Z,2
2018-11-26T07:02:41.106Z,2
2018-11-26T07:03:40.984Z,2
2018-11-26T07:04:41.346Z,2
2018-11-26T07:05:41.259Z,2
2018-11-26T07:06:41.158Z,2
2018-11-26T07:07:41.073Z,2
2018-11-26T07:08:40.978Z,2
2018-11-26T07:09:40.865Z,2
2018-11-26T07:10:40.800Z,2
2018-11-26T07:11:40.747Z,2
2018-11-26T07:12:40.672Z,2
2018-11-26T07:13:40.585Z,2
2018-11-26T07:14:40.940Z,2
2018-11-26T07:15:40.835Z,2
2018-11-26T07:16:40.754Z,2
2018-11-26T07:17:40.653Z,2
2018-11-26T07:18:40.560Z,2
2018-11-26T07:19:40.444Z,2
2018-11-26T07:20:40.333Z,2
2018-11-26T07:21:40.222Z,2
2018-11-26T07:22:40.093Z,2
2018-11-26T07:23:40.011Z,1.9
2018-11-26T07:24:40.327Z,1.9
2018-11-26T07:25:40.230Z,2
2018-11-26T07:26:40.124Z,1.9
2018-11-26T07:27:40.020Z,2
2018-11-26T07:28:39.948Z,2
2018-11-26T07:29:39.869Z,2
2018-11-26T07:30:39.758Z,2
2018-11-26T07:31:39.675Z,2
2018-11-26T07:32:39.572Z,2
2018-11-26T07:33:39.466Z,1.9
2018-11-26T07:34:39.820Z,1.9
2018-11-26T07:35:39.749Z,1.9
2018-11-26T07:36:39.634Z,1.9
2018-11-26T07:37:39.515Z,1.9
2018-11-26T07:38:40.547Z,1.9
2018-11-26T07:39:40.459Z,2
2018-11-26T07:40:40.348Z,2
2018-11-26T07:41:40.253Z,2
2018-11-26T07:42:40.146Z,2
2018-11-26T07:43:40.067Z,2
2018-11-26T07:44:40.385Z,2
2018-11-26T07:45:40.317Z,2
2018-11-26T07:46:40.264Z,2
2018-11-26T07:47:40.153Z,2
2018-11-26T07:48:40.049Z,2.1
2018-11-26T07:49:39.957Z,2.2
2018-11-26T07:50:39.868Z,2.3
2018-11-26T07:51:39.789Z,2.4
2018-11-26T07:52:39.700Z,2.4
2018-11-26T07:53:39.586Z,2.5
2018-11-26T07:54:39.940Z,2.5
2018-11-26T07:55:39.853Z,2.5
2018-11-26T07:56:39.762Z,2.5
2018-11-26T07:57:39.662Z,2.6
2018-11-26T07:58:39.604Z,2.6
2018-11-26T07:59:39.502Z,2.5
2018-11-26T08:00:39.394Z,2.5
2018-11-26T08:01:39.330Z,2.5
2018-11-26T08:02:39.232Z,2.5
2018-11-26T08:03:39.134Z,2.5
2018-11-26T08:04:39.462Z,2.4
2018-11-26T08:05:39.367Z,2.4
2018-11-26T08:06:39.269Z,2.4
2018-11-26T08:07:39.174Z,2.4
2018-11-26T08:08:39.099Z,2.3
2018-11-26T08:09:38.997Z,2.3
2018-11-26T08:10:38.890Z,2.3
2018-11-26T08:11:38.826Z,2.3
2018-11-26T08:12:38.718Z,2.3
2018-11-26T08:13:38.616Z,2.2
2018-11-26T08:14:38.959Z,2.2
2018-11-26T08:15:38.850Z,2.2
2018-11-26T08:16:38.733Z,2.2
2018-11-26T08:17:38.647Z,2.2
2018-11-26T08:18:38.575Z,2.2
2018-11-26T08:19:38.491Z,2.2
2018-11-26T08:20:38.397Z,2.3
2018-11-26T08:21:38.303Z,2.3
2018-11-26T08:22:38.217Z,2.3
2018-11-26T08:23:38.134Z,2.3
2018-11-26T08:24:38.478Z,2.3
2018-11-26T08:25:38.395Z,2.2
2018-11-26T08:26:38.301Z,2.2
2018-11-26T08:27:38.195Z,2.2
2018-11-26T08:28:38.115Z,2.3
2018-11-26T08:29:38.011Z,2.4
2018-11-26T08:30:37.933Z,2.4
2018-11-26T08:31:37.841Z,2.4
2018-11-26T08:32:37.787Z,2.5
2018-11-26T08:33:37.726Z,2.5
2018-11-26T08:34:38.042Z,2.6
2018-11-26T08:35:37.935Z,2.6
2018-11-26T08:36:37.837Z,2.6
2018-11-26T08:37:37.733Z,2.7
2018-11-26T08:38:37.645Z,2.6
2018-11-26T08:39:37.526Z,2.7
2018-11-26T08:40:37.449Z,2.6
2018-11-26T08:41:37.356Z,2.7
2018-11-26T08:42:37.247Z,2.6
2018-11-26T08:43:37.157Z,2.6
2018-11-26T08:44:39.635Z,2.5
2018-11-26T08:45:39.552Z,2.5
2018-11-26T08:46:39.469Z,2.5
2018-11-26T08:47:39.369Z,2.5
2018-11-26T08:48:39.272Z,2.5
2018-11-26T08:49:39.171Z,2.5
2018-11-26T08:50:39.083Z,2.6
2018-11-26T08:51:39.315Z,2.6
2018-11-26T08:52:39.207Z,2.7
2018-11-26T08:53:39.135Z,2.7
2018-11-26T08:54:39.501Z,2.7
2018-11-26T08:55:39.410Z,2.8
2018-11-26T08:56:39.301Z,2.8
2018-11-26T08:57:39.193Z,2.8
2018-11-26T08:58:39.108Z,2.8
2018-11-26T08:59:39.009Z,2.8
2018-11-26T09:00:38.903Z,2.8
2018-11-26T09:01:39.616Z,2.8
2018-11-26T09:02:39.515Z,2.8
2018-11-26T09:03:39.407Z,2.8
2018-11-26T09:04:39.747Z,2.8
2018-11-26T09:05:39.645Z,2.8
2018-11-26T09:06:39.531Z,2.8
2018-11-26T09:07:39.421Z,2.7
2018-11-26T09:08:39.322Z,2.7
2018-11-26T09:09:39.245Z,2.7
2018-11-26T09:10:39.150Z,2.7
2018-11-26T09:11:39.056Z,2.7
2018-11-26T09:12:38.961Z,2.7
2018-11-26T09:13:38.871Z,2.7
2018-11-26T09:14:39.205Z,2.7
2018-11-26T09:15:39.122Z,2.7
2018-11-26T09:16:39.013Z,2.7
2018-11-26T09:17:38.911Z,2.6
2018-11-26T09:18:38.817Z,2.7
2018-11-26T09:19:38.709Z,2.7
2018-11-26T09:20:38.612Z,2.7
2018-11-26T09:21:38.520Z,2.7
2018-11-26T09:22:38.413Z,2.7
2018-11-26T09:23:38.307Z,2.7
2018-11-26T09:24:38.643Z,2.7
2018-11-26T09:25:38.533Z,2.7
2018-11-26T09:26:38.443Z,2.7
2018-11-26T09:27:38.349Z,2.7
2018-11-26T09:28:38.257Z,2.7
2018-11-26T09:29:38.169Z,2.8
2018-11-26T09:30:38.087Z,2.8
2018-11-26T09:31:37.989Z,2.8
2018-11-26T09:32:37.893Z,2.8
2018-11-26T09:33:37.800Z,2.8
2018-11-26T09:34:38.211Z,2.8
2018-11-26T09:35:38.268Z,2.8
2018-11-26T09:36:38.168Z,2.8
2018-11-26T09:37:38.074Z,2.8
2018-11-26T09:38:37.959Z,2.8
2018-11-26T09:39:37.879Z,2.8
2018-11-26T09:40:37.799Z,2.8
2018-11-26T09:41:37.779Z,2.8
2018-11-26T09:42:37.808Z,2.9
2018-11-26T09:43:37.704Z,2.8
2018-11-26T09:44:38.089Z,2.8
2018-11-26T09:45:41.178Z,2.8
2018-11-26T09:46:41.068Z,2.8
2018-11-26T09:47:41.010Z,2.8
2018-11-26T09:48:40.899Z,2.8
2018-11-26T09:49:40.853Z,2.9
2018-11-26T09:50:40.901Z,2.9
2018-11-26T09:51:42.861Z,2.8
2018-11-26T09:52:42.767Z,2.9
2018-11-26T09:53:42.689Z,2.9
2018-11-26T09:54:43.073Z,2.9
2018-11-26T09:55:43.013Z,2.9
2018-11-26T09:56:42.907Z,2.9
2018-11-26T09:57:42.815Z,2.9
2018-11-26T09:58:42.721Z,2.9
2018-11-26T09:59:42.615Z,2.9
2018-11-26T10:00:42.526Z,2.9
2018-11-26T10:01:42.417Z,2.9
2018-11-26T10:02:42.307Z,2.8
2018-11-26T10:03:42.337Z,2.9
2018-11-26T10:04:42.653Z,2.9
2018-11-26T10:05:42.583Z,2.9
2018-11-26T10:06:42.497Z,2.9
2018-11-26T10:07:42.447Z,2.9
2018-11-26T10:08:42.353Z,3
2018-11-26T10:09:42.281Z,3
2018-11-26T10:10:42.181Z,3.1
2018-11-26T10:11:42.079Z,3.1
2018-11-26T10:12:42.035Z,3.2
2018-11-26T10:13:41.951Z,3.2
2018-11-26T10:14:42.334Z,4.2
2018-11-26T10:15:42.412Z,3.3
2018-11-26T10:16:42.317Z,3.3
2018-11-26T10:17:42.201Z,3.4
2018-11-26T10:18:42.105Z,3.5
2018-11-26T10:19:42.008Z,3.5
2018-11-26T10:20:41.934Z,3.5
2018-11-26T10:21:41.835Z,3.6
2018-11-26T10:22:41.719Z,3.6
2018-11-26T10:23:41.603Z,3.6
2018-11-26T10:24:41.937Z,3.6
2018-11-26T10:25:41.842Z,3.6
2018-11-26T10:26:41.752Z,3.6
2018-11-26T10:27:41.662Z,3.6
2018-11-26T10:28:41.557Z,3.6
2018-11-26T10:29:41.454Z,3.6
2018-11-26T10:30:41.360Z,3.7
2018-11-26T10:31:41.270Z,3.7
2018-11-26T10:32:41.207Z,3.7
2018-11-26T10:33:41.109Z,3.6
2018-11-26T10:34:41.437Z,3.6
2018-11-26T10:35:41.353Z,3.6
2018-11-26T10:36:41.750Z,3.6
2018-11-26T10:37:41.659Z,3.6
2018-11-26T10:38:41.581Z,3.5
2018-11-26T10:39:41.518Z,3.5
2018-11-26T10:40:41.415Z,3.5
2018-11-26T10:41:41.312Z,3.5
2018-11-26T10:42:41.215Z,3.4
2018-11-26T10:43:41.142Z,3.4
2018-11-26T10:44:41.467Z,3.3
2018-11-26T10:45:41.382Z,3.3
2018-11-26T10:46:41.275Z,3.3
2018-11-26T10:47:41.168Z,3.2
2018-11-26T10:48:41.078Z,3.2
2018-11-26T10:49:40.974Z,3.1
2018-11-26T10:50:40.892Z,3.1
2018-11-26T10:51:40.835Z,3.1
2018-11-26T10:52:40.761Z,3.1
2018-11-26T10:53:40.686Z,3
2018-11-26T10:54:41.006Z,3
2018-11-26T10:55:40.903Z,3
2018-11-26T10:56:40.795Z,3
2018-11-26T10:57:40.673Z,3
2018-11-26T10:58:40.583Z,3
2018-11-26T10:59:40.462Z,3
2018-11-26T11:00:40.377Z,3
2018-11-26T11:01:40.274Z,3
2018-11-26T11:02:40.168Z,3
2018-11-26T11:03:40.090Z,3
2018-11-26T11:04:47.860Z,2.9
2018-11-26T11:05:47.780Z,2.9
2018-11-26T11:06:47.684Z,3
2018-11-26T11:07:47.581Z,3
2018-11-26T11:08:47.523Z,3
2018-11-26T11:09:47.436Z,3.1
2018-11-26T11:10:47.324Z,3.1
2018-11-26T11:11:47.241Z,3.2
2018-11-26T11:12:47.158Z,3.2
2018-11-26T11:13:47.071Z,3.2
2018-11-26T11:14:47.404Z,3.3
2018-11-26T11:15:47.296Z,3.3
2018-11-26T11:16:47.211Z,3.4
2018-11-26T11:17:47.128Z,3.4
2018-11-26T11:18:47.022Z,3.6
2018-11-26T11:19:46.943Z,3.6
2018-11-26T11:20:46.855Z,3.6
2018-11-26T11:21:46.765Z,3.6
2018-11-26T11:22:46.669Z,3.7
2018-11-26T11:23:46.583Z,3.7
2018-11-26T11:24:46.935Z,3.8
2018-11-26T11:25:46.846Z,3.8
2018-11-26T11:26:46.741Z,3.8
2018-11-26T11:27:46.662Z,3.8
2018-11-26T11:28:46.571Z,3.8
2018-11-26T11:29:46.471Z,3.8
2018-11-26T11:30:46.377Z,3.7
2018-11-26T11:31:46.251Z,3.7
2018-11-26T11:32:46.149Z,3.7
2018-11-26T11:33:46.019Z,3.7
2018-11-26T11:34:46.363Z,3.7
2018-11-26T11:35:46.271Z,3.6
2018-11-26T11:36:46.154Z,3.6
2018-11-26T11:37:46.056Z,3.6
2018-11-26T11:38:45.951Z,3.6
2018-11-26T11:39:45.846Z,3.6
2018-11-26T11:40:45.752Z,3.6
2018-11-26T11:41:45.654Z,3.6
2018-11-26T11:42:45.559Z,3.6
2018-11-26T11:43:45.431Z,3.6
2018-11-26T11:44:45.797Z,3.6
2018-11-26T11:45:45.730Z,3.6
2018-11-26T11:46:45.616Z,3.6
2018-11-26T11:47:45.503Z,3.6
2018-11-26T11:48:45.415Z,3.5
2018-11-26T11:49:45.314Z,3.5
2018-11-26T11:50:45.197Z,3.5
2018-11-26T11:51:45.091Z,3.5
2018-11-26T11:52:44.974Z,3.5
2018-11-26T11:53:44.859Z,3.5
2018-11-26T11:54:45.173Z,3.5
2018-11-26T11:55:45.068Z,3.5
2018-11-26T11:56:44.972Z,3.5
2018-11-26T11:57:44.885Z,3.5
2018-11-26T11:58:44.791Z,3.6
2018-11-26T11:59:44.690Z,3.6
2018-11-26T12:00:44.570Z,3.6
2018-11-26T12:01:44.460Z,3.6
2018-11-26T12:02:44.413Z,3.7
2018-11-26T12:03:44.294Z,3.8
2018-11-26T12:04:44.603Z,3.9
2018-11-26T12:05:44.533Z,3.9
2018-11-26T12:06:44.443Z,4
2018-11-26T12:07:44.334Z,4
2018-11-26T12:08:44.252Z,4
2018-11-26T12:09:44.132Z,4
2018-11-26T12:10:44.036Z,4
2018-11-26T12:11:43.930Z,4
2018-11-26T12:12:43.830Z,4
2018-11-26T12:13:43.737Z,4
2018-11-26T12:14:44.049Z,4
2018-11-26T12:15:43.930Z,3.9
2018-11-26T12:16:43.817Z,3.9
2018-11-26T12:17:43.706Z,3.9
2018-11-26T12:18:43.654Z,3.9
2018-11-26T12:19:43.578Z,3.9
2018-11-26T12:20:43.456Z,3.9
2018-11-26T12:21:43.340Z,3.9
2018-11-26T12:22:43.224Z,3.8
2018-11-26T12:23:43.168Z,3.8
2018-11-26T12:24:43.506Z,3.8
2018-11-26T12:25:43.407Z,3.8
2018-11-26T12:26:43.323Z,3.8
2018-11-26T12:27:43.242Z,3.8
2018-11-26T12:28:43.126Z,3.8
2018-11-26T12:29:43.037Z,3.7
2018-11-26T12:30:42.909Z,3.7
2018-11-26T12:31:42.798Z,3.7
2018-11-26T12:32:42.677Z,3.7
2018-11-26T12:33:42.545Z,3.7
2018-11-26T12:34:42.840Z,3.7
2018-11-26T12:35:42.758Z,3.7
2018-11-26T12:36:42.643Z,3.7
2018-11-26T12:37:42.531Z,3.7
2018-11-26T12:38:42.430Z,3.7
2018-11-26T12:39:42.319Z,3.7
2018-11-26T12:40:42.233Z,3.7
2018-11-26T12:41:42.136Z,3.7
2018-11-26T12:42:42.024Z,3.8
2018-11-26T12:43:41.972Z,3.7
2018-11-26T12:44:42.289Z,3.7
2018-11-26T12:45:42.186Z,3.7
2018-11-26T12:46:42.160Z,3.7
2018-11-26T12:47:42.048Z,3.8
2018-11-26T12:48:41.929Z,3.8
2018-11-26T12:49:41.803Z,3.8
2018-11-26T12:50:41.677Z,3.8
2018-11-26T12:51:41.600Z,3.8
2018-11-26T12:52:41.482Z,3.8
2018-11-26T12:53:41.369Z,3.7
2018-11-26T12:54:41.703Z,3.8
2018-11-26T12:55:41.591Z,3.8
2018-11-26T12:56:41.502Z,3.8
2018-11-26T12:57:41.401Z,3.9
2018-11-26T12:58:41.271Z,3.8
2018-11-26T12:59:41.160Z,3.8
2018-11-26T13:00:41.049Z,3.8
2018-11-26T13:01:40.935Z,3.8
2018-11-26T13:02:40.813Z,3.8
2018-11-26T13:03:40.723Z,3.8
2018-11-26T13:04:41.031Z,3.8
2018-11-26T13:05:40.929Z,3.8
2018-11-26T13:06:41.254Z,3.8
2018-11-26T13:07:41.129Z,3.8
2018-11-26T13:08:41.033Z,3.8
2018-11-26T13:09:40.933Z,3.8
2018-11-26T13:10:40.814Z,3.8
2018-11-26T13:11:40.711Z,3.8
2018-11-26T13:12:40.579Z,3.8
2018-11-26T13:13:40.475Z,3.8
2018-11-26T13:14:40.781Z,3.8
2018-11-26T13:15:40.669Z,3.8
2018-11-26T13:16:40.596Z,3.8
2018-11-26T13:17:40.511Z,3.9
2018-11-26T13:18:40.437Z,3.9
2018-11-26T13:19:40.345Z,4
2018-11-26T13:20:40.238Z,4
2018-11-26T13:21:40.126Z,4.1
2018-11-26T13:22:40.008Z,4.1
2018-11-26T13:23:39.910Z,4.2
2018-11-26T13:24:40.229Z,4.2
2018-11-26T13:25:43.126Z,4.2
2018-11-26T13:26:43.037Z,4.2
2018-11-26T13:27:42.924Z,4.3
2018-11-26T13:28:42.823Z,4.3
2018-11-26T13:29:42.740Z,4.3
2018-11-26T13:30:42.632Z,4.3
2018-11-26T13:31:42.520Z,4.2
2018-11-26T13:32:42.400Z,4.2
2018-11-26T13:33:42.307Z,4.2
2018-11-26T13:34:42.624Z,4.1
2018-11-26T13:35:42.547Z,4.1
2018-11-26T13:36:42.459Z,4
2018-11-26T13:37:42.330Z,4.1
2018-11-26T13:38:42.220Z,4
2018-11-26T13:39:42.116Z,4
2018-11-26T13:40:42.013Z,4
2018-11-26T13:41:41.894Z,3.9
2018-11-26T13:42:41.780Z,3.9
2018-11-26T13:43:41.660Z,3.9
2018-11-26T13:44:41.970Z,3.9
2018-11-26T13:45:41.878Z,3.9
2018-11-26T13:46:41.771Z,3.8
2018-11-26T13:47:41.649Z,3.8
2018-11-26T13:48:41.694Z,3.8
2018-11-26T13:49:41.596Z,3.8
2018-11-26T13:50:41.500Z,3.8
2018-11-26T13:51:41.384Z,3.8
2018-11-26T13:52:41.281Z,3.8
2018-11-26T13:53:41.180Z,3.8
2018-11-26T13:54:41.509Z,3.8
2018-11-26T13:55:41.406Z,3.8
2018-11-26T13:56:41.284Z,3.8